Time;durP1;ratioP1;P1;durP2;ratioP2;P2;SDS_P1;SDS_P2;PMS_P1;PMS_P2;Temp;Humidity;BMP_temperature;BMP_pressure;BME280_temperature;BME280_humidity;BME280_pressure;Samples;Min_cycle;Max_cycle;Signal;HPM_P1;HPM_P2
2021/06/05 00:00:45;;;;;;;13.98;12.57;;;;;;;17.65;72.37;101020.19;4900768;28;98222;-71
2021/06/05 00:03:12;;;;;;;14.48;11.98;;;;;;;17.58;72.39;101015.13;4900210;28;111900;-73
2021/06/05 00:05:46;;;;;;;12.85;11.75;;;;;;;17.75;71.57;101011.03;4900265;28;99347;-73
2021/06/05 00:08:12;;;;;;;13.68;12.30;;;;;;;17.76;71.28;101010.72;4901216;28;101966;-73
2021/06/05 00:10:42;;;;;;;13.05;11.90;;;;;;;17.49;71.83;101005.22;4899322;28;122926;-73
2021/06/05 00:13:12;;;;;;;13.45;12.15;;;;;;;17.53;71.61;101014.44;4867302;28;112628;-73
2021/06/05 00:15:40;;;;;;;12.43;11.25;;;;;;;17.67;71.25;101013.31;4899415;28;110672;-71
2021/06/05 00:18:07;;;;;;;13.07;11.70;;;;;;;17.67;71.05;101012.50;4899741;28;116243;-71
2021/06/05 00:20:33;;;;;;;12.73;11.52;;;;;;;17.54;71.60;101018.78;4899452;28;101524;-71
2021/06/05 00:23:01;;;;;;;13.23;11.90;;;;;;;17.42;71.89;101025.50;4882852;28;99181;-73
2021/06/05 00:25:27;;;;;;;13.73;12.35;;;;;;;17.55;71.21;101017.66;4898109;28;116972;-73
2021/06/05 00:27:53;;;;;;;13.15;11.85;;;;;;;17.38;71.83;101013.59;4910551;28;97943;-74
2021/06/05 00:30:20;;;;;;;12.57;11.45;;;;;;;17.45;71.75;101015.94;4920435;28;97781;-71
2021/06/05 00:32:46;;;;;;;13.23;11.93;;;;;;;17.40;71.77;101013.28;4886455;28;102407;-73
2021/06/05 00:35:12;;;;;;;12.50;11.23;;;;;;;17.41;71.79;101021.19;4917839;28;127000;-73
2021/06/05 00:37:38;;;;;;;12.57;11.38;;;;;;;17.50;71.07;101013.09;4905180;28;98231;-73
2021/06/05 00:40:06;;;;;;;12.68;11.50;;;;;;;17.27;71.60;101022.25;4851568;28;99685;-71
2021/06/05 00:42:32;;;;;;;14.02;11.35;;;;;;;17.22;72.04;101014.97;4865990;28;107276;-73
2021/06/05 00:44:58;;;;;;;13.50;11.43;;;;;;;17.29;72.07;101009.94;4881016;28;128802;-73
2021/06/05 00:47:24;;;;;;;13.52;11.70;;;;;;;17.31;71.83;101015.09;4883350;28;113054;-71
2021/06/05 00:49:52;;;;;;;12.57;11.27;;;;;;;17.19;72.23;101012.84;4901411;28;121517;-71
2021/06/05 00:52:20;;;;;;;14.80;11.70;;;;;;;17.27;72.01;101016.78;4919878;28;99767;-73
2021/06/05 00:54:46;;;;;;;13.43;11.90;;;;;;;17.33;71.47;101010.13;4884576;28;116719;-71
2021/06/05 00:57:12;;;;;;;14.20;11.43;;;;;;;17.35;71.39;101013.38;4900739;28;127278;-73
2021/06/05 00:59:38;;;;;;;13.73;10.85;;;;;;;17.32;71.62;101013.97;4919389;28;98016;-71
2021/06/05 01:02:06;;;;;;;11.90;10.77;;;;;;;17.24;71.63;101006.47;4885812;28;107956;-73
2021/06/05 01:04:32;;;;;;;11.95;10.60;;;;;;;17.19;71.98;101001.94;4901677;28;113738;-71
2021/06/05 01:07:23;;;;;;;12.27;10.98;;;;;;;17.14;71.96;101010.22;4898434;28;98268;-74
2021/06/05 01:09:58;;;;;;;12.82;11.23;;;;;;;16.96;72.69;101011.03;4889216;28;98442;-74
2021/06/05 01:12:42;;;;;;;12.27;10.98;;;;;;;17.07;72.37;101005.13;4870837;28;98416;-73
2021/06/05 01:15:22;;;;;;;12.85;11.43;;;;;;;17.17;71.86;101001.41;4886450;28;98423;-73
2021/06/05 01:17:58;;;;;;;11.90;10.68;;;;;;;17.12;71.73;101006.97;4900131;28;114251;-73
2021/06/05 01:20:52;;;;;;;11.90;10.70;;;;;;;17.13;71.64;101001.22;4885147;28;111657;-73
2021/06/05 01:23:45;;;;;;;13.25;11.50;;;;;;;16.90;72.04;100996.72;4875031;28;98792;-73
2021/06/05 01:26:28;;;;;;;14.40;11.18;;;;;;;16.85;72.25;101011.19;4881754;28;100230;-73
2021/06/05 01:29:20;;;;;;;12.30;11.10;;;;;;;16.63;72.98;101008.25;4884669;28;98423;-73
2021/06/05 01:32:01;;;;;;;;;;;;;;;16.72;73.15;101011.13;4888839;28;97897;-73
2021/06/05 01:34:31;;;;;;;12.13;10.95;;;;;;;16.74;73.17;101008.91;4885110;28;98881;-71
2021/06/05 01:36:57;;;;;;;12.23;10.65;;;;;;;16.81;72.69;100998.47;4902616;28;99545;-73
2021/06/05 01:39:28;;;;;;;11.38;10.27;;;;;;;16.81;72.62;100998.47;4920925;28;128558;-73
2021/06/05 01:41:56;;;;;;;13.32;10.60;;;;;;;16.85;72.18;100994.84;4889312;28;98065;-71
2021/06/05 01:44:22;;;;;;;12.07;10.98;;;;;;;16.56;73.04;100996.91;4903713;28;119364;-71
2021/06/05 01:46:49;;;;;;;11.73;10.50;;;;;;;16.55;73.08;101003.47;4886037;28;113799;-73
2021/06/05 01:49:16;;;;;;;11.77;10.50;;;;;;;16.44;73.32;101003.59;4904957;28;97932;-71
2021/06/05 01:51:52;;;;;;;12.20;11.07;;;;;;;16.56;73.32;100995.00;4855412;28;97965;-71
2021/06/05 01:54:39;;;;;;;12.10;10.80;;;;;;;16.78;72.41;100994.44;4869254;28;98530;-73
2021/06/05 01:57:09;;;;;;;12.30;11.00;;;;;;;16.73;72.47;100994.50;4888205;28;98639;-73
2021/06/05 01:59:35;;;;;;;12.88;10.77;;;;;;;16.74;72.14;100985.25;4884511;28;98453;-73
2021/06/05 02:02:01;;;;;;;11.90;10.70;;;;;;;16.68;72.20;100989.13;4877860;28;122380;-72
2021/06/05 02:04:27;;;;;;;12.18;10.82;;;;;;;16.52;72.53;100985.00;4884846;28;100708;-70
2021/06/05 02:06:53;;;;;;;12.75;10.43;;;;;;;16.62;72.04;100993.84;4901844;28;128585;-69
2021/06/05 02:09:22;;;;;;;12.43;10.75;;;;;;;16.65;72.35;100989.69;4868553;28;127637;-71
2021/06/05 02:11:53;;;;;;;12.05;10.82;;;;;;;16.52;72.53;100982.28;4867730;28;105293;-70
2021/06/05 02:14:29;;;;;;;12.23;10.60;;;;;;;16.16;73.70;100983.59;4869591;28;99649;-71
2021/06/05 02:16:55;;;;;;;11.77;10.77;;;;;;;16.32;73.55;100988.81;4870133;28;97837;-71
2021/06/05 02:19:32;;;;;;;12.10;10.77;;;;;;;16.31;72.94;100982.59;4884086;28;117867;-70
2021/06/05 02:22:00;;;;;;;11.55;10.40;;;;;;;16.48;72.87;100990.22;4861237;28;97925;-69
2021/06/05 02:24:35;;;;;;;13.02;11.23;;;;;;;16.37;73.04;100984.13;4887942;28;98728;-71
2021/06/05 02:27:02;;;;;;;12.45;10.70;;;;;;;16.33;72.74;100985.00;4872269;28;98644;-69
2021/06/05 02:29:32;;;;;;;12.20;11.00;;;;;;;16.30;73.08;100975.50;4902522;28;102394;-69
2021/06/05 02:31:58;;;;;;;12.52;10.90;;;;;;;15.95;74.31;100991.22;4904860;28;98049;-71
2021/06/05 02:34:27;;;;;;;12.60;11.30;;;;;;;15.82;74.73;100977.50;4903125;28;121074;-69
2021/06/05 02:36:55;;;;;;;13.00;11.75;;;;;;;15.76;75.37;100975.91;4903710;28;99383;-69
2021/06/05 02:39:22;;;;;;;13.38;11.98;;;;;;;15.70;75.97;100981.41;4887854;28;103576;-69
2021/06/05 02:41:50;;;;;;;13.43;12.05;;;;;;;15.77;75.15;100981.09;4919073;28;98084;-71
2021/06/05 02:44:19;;;;;;;14.02;12.73;;;;;;;15.81;75.30;100979.41;4884547;28;99116;-69
2021/06/05 02:46:45;;;;;;;14.60;13.20;;;;;;;15.70;75.67;100980.63;4900221;28;99128;-70
2021/06/05 02:49:22;;;;;;;14.15;12.75;;;;;;;15.66;75.43;100979.56;4883801;28;98054;-69
2021/06/05 02:52:02;;;;;;;14.35;12.88;;;;;;;15.65;75.91;100980.69;4884223;28;98022;-69
2021/06/05 02:54:28;;;;;;;14.18;12.68;;;;;;;15.71;75.67;100982.22;4885656;28;98467;-70
2021/06/05 02:56:54;;;;;;;13.50;12.15;;;;;;;15.41;76.56;100978.72;4898294;28;127660;-70
2021/06/05 02:59:21;;;;;;;13.65;12.35;;;;;;;15.49;76.39;100974.56;4902617;28;98005;-70
2021/06/05 03:01:47;;;;;;;16.05;14.45;;;;;;;15.44;76.07;100977.31;4902981;28;109786;-70
2021/06/05 03:04:13;;;;;;;14.35;13.05;;;;;;;15.56;76.09;100976.94;4916498;28;98495;-68
2021/06/05 03:06:40;;;;;;;14.93;13.52;;;;;;;15.52;76.02;100976.69;4886572;28;117388;-70
2021/06/05 03:09:07;;;;;;;14.70;13.25;;;;;;;15.79;75.06;100972.63;4921812;28;98459;-68
2021/06/05 03:11:34;;;;;;;15.50;13.32;;;;;;;15.90;74.39;100972.22;4920208;28;98279;-71
2021/06/05 03:14:00;;;;;;;14.05;12.60;;;;;;;15.85;74.80;100976.91;4919656;28;128444;-70
2021/06/05 03:16:26;;;;;;;14.60;13.13;;;;;;;15.91;74.90;100965.66;4919193;28;108561;-69
2021/06/05 03:18:52;;;;;;;13.85;12.45;;;;;;;15.97;74.78;100966.44;4920822;28;98392;-70
2021/06/05 03:21:19;;;;;;;14.50;13.20;;;;;;;16.07;74.32;100966.31;4921265;28;97841;-68
2021/06/05 03:23:46;;;;;;;14.90;13.43;;;;;;;15.96;74.18;100964.81;4911688;28;98290;-68
2021/06/05 03:26:13;;;;;;;15.20;13.68;;;;;;;16.04;74.38;100966.09;4883214;28;114483;-68
2021/06/05 03:28:40;;;;;;;14.95;13.55;;;;;;;15.95;74.58;100964.00;4901669;28;101259;-68
2021/06/05 03:31:06;;;;;;;14.25;12.95;;;;;;;16.15;73.64;100973.81;4883599;28;98077;-70
2021/06/05 03:33:32;;;;;;;14.50;13.20;;;;;;;16.06;74.12;100970.13;4900970;28;128085;-70
2021/06/05 03:35:58;;;;;;;14.18;12.88;;;;;;;16.13;73.23;100967.03;4882942;28;98714;-70
2021/06/05 03:38:25;;;;;;;14.38;13.02;;;;;;;16.20;73.23;100970.22;4866476;28;112754;-70
2021/06/05 03:40:52;;;;;;;14.23;12.80;;;;;;;16.13;73.07;100975.19;4901971;28;104321;-68
2021/06/05 03:43:19;;;;;;;14.23;12.93;;;;;;;15.95;73.54;100971.34;4869538;28;99189;-68
2021/06/05 03:45:45;;;;;;;14.45;13.00;;;;;;;16.12;72.84;100973.59;4919689;28;111298;-68
2021/06/05 03:48:11;;;;;;;14.20;12.65;;;;;;;16.19;72.74;100972.13;4920530;28;105357;-68
2021/06/05 03:50:45;;;;;;;14.20;12.93;;;;;;;16.24;72.65;100975.88;4920240;28;98200;-68
2021/06/05 03:53:13;;;;;;;13.02;11.82;;;;;;;16.22;72.64;100978.06;4902509;28;98786;-68
2021/06/05 03:55:39;;;;;;;13.40;12.00;;;;;;;16.13;72.63;100976.00;4920459;28;98637;-70
2021/06/05 03:58:05;;;;;;;13.27;11.93;;;;;;;16.14;72.55;100983.06;4919890;28;115131;-68
2021/06/05 04:00:35;;;;;;;12.82;11.63;;;;;;;16.14;72.43;100993.13;4903126;28;98234;-68
2021/06/05 04:03:01;;;;;;;12.65;11.45;;;;;;;16.26;72.12;100998.94;4919785;28;98535;-68
2021/06/05 04:05:27;;;;;;;13.45;12.05;;;;;;;16.16;71.83;100999.91;4902464;28;114736;-70
2021/06/05 04:07:53;;;;;;;15.40;11.43;;;;;;;16.12;72.00;100998.06;4882089;28;99109;-69
2021/06/05 04:10:22;;;;;;;12.93;11.73;;;;;;;16.35;70.92;101004.56;4901042;28;103677;-68
2021/06/05 04:12:48;;;;;;;12.57;11.10;;;;;;;16.43;71.24;101001.19;4900290;28;98579;-70
2021/06/05 04:15:15;;;;;;;12.95;10.95;;;;;;;16.31;71.41;100995.34;4900582;28;116140;-69
2021/06/05 04:17:42;;;;;;;12.25;11.02;;;;;;;16.47;70.38;101002.22;4899470;28;97863;-70
2021/06/05 04:20:10;;;;;;;12.15;10.98;;;;;;;16.44;70.79;100991.91;4900645;28;97767;-70
2021/06/05 04:22:36;;;;;;;12.52;11.23;;;;;;;16.52;70.28;100993.16;4900412;28;99045;-69
2021/06/05 04:25:02;;;;;;;13.45;10.57;;;;;;;16.53;70.01;100994.78;4894260;28;127842;-69
2021/06/05 04:27:28;;;;;;;12.82;11.60;;;;;;;16.62;69.78;100991.13;4901955;28;98421;-68
2021/06/05 04:29:55;;;;;;;12.25;11.05;;;;;;;16.43;69.74;100985.69;4900502;28;123051;-68
2021/06/05 04:32:21;;;;;;;12.52;11.18;;;;;;;16.63;70.10;100987.28;4885653;28;99224;-70
2021/06/05 04:34:47;;;;;;;13.13;11.65;;;;;;;16.54;70.50;100986.31;4918518;28;128161;-70
2021/06/05 04:37:13;;;;;;;13.05;11.88;;;;;;;16.66;69.99;100983.97;4918543;28;127486;-69
2021/06/05 04:39:40;;;;;;;12.60;11.35;;;;;;;16.67;69.60;100985.59;4901345;28;122813;-70
2021/06/05 04:42:08;;;;;;;12.50;11.30;;;;;;;16.80;69.82;100988.69;4920295;28;98906;-68
2021/06/05 04:44:34;;;;;;;12.82;11.52;;;;;;;16.80;69.62;100984.06;4893557;28;98304;-69
2021/06/05 04:47:00;;;;;;;12.90;11.57;;;;;;;16.77;69.97;100992.00;4882067;28;104318;-70
2021/06/05 04:49:26;;;;;;;13.32;12.02;;;;;;;16.41;70.34;101003.38;4900349;28;97668;-69
2021/06/05 04:51:52;;;;;;;12.63;11.52;;;;;;;16.77;68.96;100998.25;4898109;28;116757;-69
2021/06/05 04:54:19;;;;;;;11.90;10.80;;;;;;;17.21;67.64;100996.19;4880640;28;120156;-70
2021/06/05 04:56:49;;;;;;;12.18;10.80;;;;;;;17.41;67.34;100991.19;4900671;28;98153;-70
2021/06/05 04:59:18;;;;;;;11.73;10.55;;;;;;;17.25;67.21;100989.03;4899509;28;97990;-69
2021/06/05 05:01:45;;;;;;;12.10;10.90;;;;;;;17.56;66.77;100990.09;4866335;28;98593;-70
2021/06/05 05:04:11;;;;;;;12.93;11.63;;;;;;;17.40;67.32;101000.47;4906375;28;113033;-70
2021/06/05 05:06:37;;;;;;;12.55;11.35;;;;;;;17.64;66.20;101000.31;4919557;28;98635;-69
2021/06/05 05:09:05;;;;;;;12.35;11.13;;;;;;;17.69;65.92;101013.03;4918472;28;106929;-70
2021/06/05 05:11:31;;;;;;;12.63;11.32;;;;;;;17.23;66.40;101019.31;4902926;28;105244;-69
2021/06/05 05:13:57;;;;;;;12.77;11.52;;;;;;;17.21;67.17;101013.34;4921785;28;127740;-70
2021/06/05 05:16:23;;;;;;;13.50;12.30;;;;;;;17.28;66.88;101013.75;4922218;28;97916;-70
2021/06/05 05:18:49;;;;;;;13.77;12.38;;;;;;;17.65;65.93;101001.13;4919295;28;123245;-69
2021/06/05 05:21:17;;;;;;;12.70;11.55;;;;;;;17.96;65.18;101009.53;4901633;28;97736;-70
2021/06/05 05:23:43;;;;;;;12.90;11.60;;;;;;;17.89;65.33;100998.22;4902042;28;113956;-69
2021/06/05 05:26:10;;;;;;;12.88;11.68;;;;;;;18.24;64.12;101006.78;4903010;28;105011;-70
2021/06/05 05:28:36;;;;;;;13.50;11.73;;;;;;;18.76;62.85;101005.34;4902677;28;97957;-69
2021/06/05 05:31:06;;;;;;;12.13;10.93;;;;;;;19.11;61.38;101005.59;4903277;28;98503;-68
2021/06/05 05:33:37;;;;;;;12.93;11.13;;;;;;;19.24;61.16;101003.91;4884872;28;97857;-69
2021/06/05 05:36:05;;;;;;;12.25;11.15;;;;;;;19.43;60.56;100998.25;4885884;28;99782;-70
2021/06/05 05:38:31;;;;;;;12.90;11.50;;;;;;;19.54;60.35;101008.59;4903227;28;97898;-70
2021/06/05 05:40:57;;;;;;;12.80;11.50;;;;;;;19.74;59.38;101011.91;4914192;28;99051;-68
2021/06/05 05:43:23;;;;;;;12.85;11.32;;;;;;;19.91;59.06;101013.91;4921128;28;98594;-70
2021/06/05 05:45:49;;;;;;;12.38;11.20;;;;;;;20.15;57.81;101008.00;4921500;28;99653;-69
2021/06/05 05:48:16;;;;;;;12.43;11.05;;;;;;;20.15;58.22;101008.00;4903626;28;122822;-70
2021/06/05 05:50:44;;;;;;;11.80;10.70;;;;;;;21.26;55.22;101000.13;4922065;28;98841;-71
2021/06/05 05:53:10;;;;;;;11.68;10.65;;;;;;;21.64;54.39;101007.63;4921098;28;98674;-70
2021/06/05 05:55:36;;;;;;;11.40;10.35;;;;;;;22.27;52.88;101008.63;4904338;28;98755;-71
2021/06/05 05:58:14;;;;;;;10.80;9.80;;;;;;;23.31;50.65;100999.50;4917718;28;98592;-70
2021/06/05 06:00:42;;;;;;;10.43;9.60;;;;;;;24.22;47.58;100999.31;4918268;28;98776;-71
2021/06/05 06:03:08;;;;;;;10.05;8.82;;;;;;;24.84;46.23;101006.28;4899955;28;98980;-70
2021/06/05 06:05:35;;;;;;;11.35;9.45;;;;;;;25.89;43.62;100997.59;4876676;28;98735;-70
2021/06/05 06:08:01;;;;;;;10.77;9.75;;;;;;;26.75;41.62;101002.28;4918775;28;97958;-70
2021/06/05 06:10:28;;;;;;;10.52;9.70;;;;;;;26.21;42.87;101003.06;4884779;28;107930;-70
2021/06/05 06:12:54;;;;;;;11.15;10.07;;;;;;;26.77;41.62;100991.66;4916280;28;129256;-71
2021/06/05 06:15:25;;;;;;;10.18;9.30;;;;;;;27.88;39.30;101004.72;4918529;28;125491;-71
2021/06/05 06:17:51;;;;;;;10.45;9.45;;;;;;;27.31;40.04;101010.09;4901478;28;98092;-70
2021/06/05 06:20:49;;;;;;;10.10;9.20;;;;;;;26.78;41.58;100998.78;4913085;28;114180;-70
2021/06/05 06:23:26;;;;;;;9.93;8.93;;;;;;;27.49;40.33;100991.03;4916534;28;98559;-70
2021/06/05 06:25:52;;;;;;;9.95;8.73;;;;;;;28.66;37.12;100990.38;4912657;28;101410;-71
2021/06/05 06:28:23;;;;;;;9.70;8.80;;;;;;;30.05;34.35;100997.25;4918295;28;98112;-71
2021/06/05 06:30:49;;;;;;;8.75;8.05;;;;;;;29.93;34.97;101003.91;4901045;28;98070;-71
2021/06/05 06:33:15;;;;;;;8.90;8.15;;;;;;;29.36;36.58;100997.91;4883714;28;98317;-70
2021/06/05 06:35:42;;;;;;;8.90;8.10;;;;;;;29.20;36.80;100992.59;4918659;28;98606;-70
2021/06/05 06:38:12;;;;;;;8.68;7.80;;;;;;;27.33;40.48;100993.91;4918429;28;97985;-69
2021/06/05 06:40:38;;;;;;;8.83;7.97;;;;;;;28.61;38.69;100988.72;4917014;28;99188;-70
2021/06/05 06:43:06;;;;;;;9.55;8.38;;;;;;;27.83;40.52;100985.69;4899499;28;111675;-69
2021/06/05 06:45:32;;;;;;;14.85;8.55;;;;;;;27.65;40.23;100997.22;4917798;28;99606;-70
2021/06/05 06:47:58;;;;;;;10.77;9.00;;;;;;;27.73;39.64;100994.56;4918501;28;98074;-70
2021/06/05 06:50:26;;;;;;;9.52;8.48;;;;;;;26.42;42.29;100992.50;4917440;28;98951;-69
2021/06/05 06:52:52;;;;;;;9.27;8.40;;;;;;;26.34;42.85;100990.75;4917323;28;111509;-70
2021/06/05 06:55:21;;;;;;;12.20;7.88;;;;;;;26.38;43.13;100988.84;4917406;28;98474;-70
2021/06/05 06:57:47;;;;;;;11.23;9.20;;;;;;;26.63;41.94;100981.09;4918151;28;99164;-70
2021/06/05 07:00:19;;;;;;;9.85;8.95;;;;;;;26.82;42.26;100990.56;4898515;28;115065;-70
2021/06/05 07:02:45;;;;;;;9.02;8.23;;;;;;;27.40;40.70;100994.03;4918264;28;98660;-70
2021/06/05 07:05:11;;;;;;;9.32;8.30;;;;;;;27.19;41.71;100979.81;4914835;28;126709;-70
2021/06/05 07:07:37;;;;;;;9.27;8.40;;;;;;;28.32;38.67;100987.53;4908158;28;122674;-70
2021/06/05 07:10:06;;;;;;;8.70;7.90;;;;;;;28.53;38.41;100987.03;4867645;28;117803;-71
2021/06/05 07:12:32;;;;;;;8.82;8.02;;;;;;;28.20;38.94;100994.13;4898903;28;117098;-71
2021/06/05 07:14:58;;;;;;;8.55;7.75;;;;;;;28.45;39.38;100999.22;4896679;28;98639;-70
2021/06/05 07:17:24;;;;;;;8.30;7.50;;;;;;;27.52;40.03;100992.25;4915649;28;98577;-70
2021/06/05 07:19:50;;;;;;;8.65;7.45;;;;;;;26.83;41.28;100992.16;4912544;28;125995;-70
2021/06/05 07:22:16;;;;;;;8.95;7.05;;;;;;;28.01;39.73;100992.25;4917998;28;99262;-70
2021/06/05 07:24:42;;;;;;;8.00;7.20;;;;;;;29.02;35.88;100986.84;4899515;28;125806;-70
2021/06/05 07:27:09;;;;;;;8.98;7.25;;;;;;;29.10;36.16;100994.06;4899915;28;97911;-70
2021/06/05 07:29:36;;;;;;;8.65;6.93;;;;;;;29.22;36.42;100990.22;4916768;28;98369;-70
2021/06/05 07:32:04;;;;;;;7.28;6.65;;;;;;;29.60;36.12;100991.00;4915597;28;127892;-70
2021/06/05 07:34:30;;;;;;;7.47;6.75;;;;;;;28.63;37.10;101000.25;4916763;28;99209;-70
2021/06/05 07:37:02;;;;;;;7.80;7.10;;;;;;;28.71;38.20;100993.63;4909104;28;121595;-71
2021/06/05 07:39:28;;;;;;;9.57;7.05;;;;;;;29.48;35.57;100980.16;4896204;28;98291;-70
2021/06/05 07:41:55;;;;;;;7.43;6.60;;;;;;;30.04;36.12;100987.31;4868956;28;98603;-70
2021/06/05 07:44:22;;;;;;;7.22;6.53;;;;;;;30.03;35.18;100980.19;4844746;28;98860;-70
2021/06/05 07:46:56;;;;;;;8.50;7.55;;;;;;;29.11;35.24;100987.34;4912901;28;98086;-71
2021/06/05 07:49:23;;;;;;;9.95;7.40;;;;;;;28.31;37.77;100991.50;4916829;28;99138;-70
2021/06/05 07:51:50;;;;;;;7.13;6.43;;;;;;;29.49;35.08;100968.66;4917210;28;99100;-71
2021/06/05 07:54:16;;;;;;;8.10;5.70;;;;;;;29.08;35.79;100979.78;4916716;28;112150;-70
2021/06/05 07:56:47;;;;;;;6.85;5.63;;;;;;;29.99;33.67;100971.81;4914393;28;98180;-71
2021/06/05 07:59:13;;;;;;;6.30;5.57;;;;;;;31.03;32.57;100966.69;4917808;28;98313;-71
2021/06/05 08:01:39;;;;;;;5.50;4.88;;;;;;;31.80;30.00;100956.00;4916154;28;121701;-71
2021/06/05 08:04:05;;;;;;;5.57;5.07;;;;;;;29.80;34.69;100959.00;4915962;28;127878;-72
2021/06/05 08:06:31;;;;;;;7.15;5.35;;;;;;;29.57;33.74;100950.09;4898692;28;121960;-71
2021/06/05 08:08:57;;;;;;;6.50;5.50;;;;;;;30.98;32.05;100945.63;4891738;28;128480;-73
2021/06/05 08:11:23;;;;;;;6.35;5.40;;;;;;;31.98;30.18;100953.19;4880917;28;127827;-71
2021/06/05 08:13:50;;;;;;;6.93;4.90;;;;;;;31.94;29.71;100947.63;4899118;28;98291;-72
2021/06/05 08:16:16;;;;;;;5.93;5.20;;;;;;;33.15;28.60;100942.69;4896597;28;99497;-72
2021/06/05 08:18:42;;;;;;;5.93;4.75;;;;;;;34.18;26.38;100946.50;4916734;28;102289;-71
2021/06/05 08:21:12;;;;;;;5.25;4.75;;;;;;;34.45;27.10;100947.34;4897915;28;112464;-71
2021/06/05 08:23:39;;;;;;;5.38;4.88;;;;;;;35.26;25.27;100946.63;4876966;28;98274;-73
2021/06/05 08:26:06;;;;;;;5.47;4.97;;;;;;;35.35;25.50;100946.84;4894330;28;98198;-73
2021/06/05 08:28:32;;;;;;;5.57;5.00;;;;;;;36.02;24.58;100958.09;4901594;28;99378;-73
2021/06/05 08:31:02;;;;;;;6.13;4.88;;;;;;;35.08;25.91;100948.91;4903148;28;120204;-73
2021/06/05 08:33:29;;;;;;;5.50;4.83;;;;;;;35.89;24.86;100952.31;4896641;28;98571;-74
2021/06/05 08:35:55;;;;;;;6.55;4.63;;;;;;;36.23;23.88;100948.44;4913863;28;115015;-71
2021/06/05 08:38:25;;;;;;;6.97;4.88;;;;;;;34.81;26.30;100944.06;4908962;28;97983;-71
2021/06/05 08:41:13;;;;;;;7.45;4.95;;;;;;;35.60;25.26;100942.84;4868636;28;98103;-71
2021/06/05 08:44:03;;;;;;;6.40;5.53;;;;;;;37.22;22.40;100946.63;4895522;28;98893;-71
2021/06/05 08:46:34;;;;;;;45.47;41.95;;;;;;;35.96;24.63;100931.75;4892832;28;97968;-74
2021/06/05 08:49:01;;;;;;;5.90;5.38;;;;;;;36.90;22.81;100934.16;4899081;28;99254;-75
2021/06/05 08:51:51;;;;;;;23.25;20.98;;;;;;;36.49;23.09;100943.13;4885097;28;117748;-71
2021/06/05 08:54:40;;;;;;;16.23;14.55;;;;;;;37.23;22.95;100934.19;4904944;28;98237;-74
2021/06/05 08:57:22;;;;;;;7.15;4.80;;;;;;;36.19;24.16;100930.91;4898012;28;97877;-72
2021/06/05 08:59:48;;;;;;;5.95;4.97;;;;;;;36.76;22.95;100928.88;4892091;28;98419;-73
2021/06/05 09:02:16;;;;;;;5.32;4.93;;;;;;;36.14;24.55;100929.41;4895792;28;127251;-72
2021/06/05 09:04:42;;;;;;;6.10;5.20;;;;;;;37.21;22.12;100933.84;4915474;28;98060;-74
2021/06/05 09:07:12;;;;;;;6.60;6.00;;;;;;;37.22;22.30;100927.78;4900583;28;105805;-75
2021/06/05 09:09:42;;;;;;;5.85;5.25;;;;;;;36.80;23.05;100919.16;4919578;28;99028;-75
2021/06/05 09:12:10;;;;;;;5.60;4.87;;;;;;;36.41;24.35;100931.25;4901785;28;99059;-75
2021/06/05 09:14:36;;;;;;;8.82;8.02;;;;;;;36.30;23.79;100923.03;4881334;28;99043;-75
2021/06/05 09:17:21;;;;;;;8.10;6.55;;;;;;;35.52;29.69;100925.38;4913861;28;109457;-71
2021/06/05 09:20:25;;;;;;;9.52;6.70;;;;;;;35.53;27.89;100917.75;4887631;28;97910;-75
2021/06/05 09:22:51;;;;;;;7.97;6.38;;;;;;;35.28;29.37;100918.16;4919115;28;98781;-74
2021/06/05 09:25:38;;;;;;;5.82;5.30;;;;;;;34.48;30.48;100916.97;4918722;28;97847;-73
2021/06/05 09:28:31;;;;;;;6.65;6.07;;;;;;;35.66;29.21;100918.72;4914601;28;98103;-73
2021/06/05 09:31:19;;;;;;;5.82;5.22;;;;;;;35.25;29.00;100921.81;4900517;28;98468;-74
2021/06/05 09:33:45;;;;;;;6.22;5.00;;;;;;;35.52;26.41;100918.97;4912141;28;101074;-73
2021/06/05 09:36:30;;;;;;;5.57;4.90;;;;;;;37.69;22.85;100916.13;4887047;28;98372;-74
2021/06/05 09:38:59;;;;;;;5.53;4.40;;;;;;;37.68;23.42;100916.56;4918806;28;98046;-74
2021/06/05 09:41:29;;;;;;;6.97;4.80;;;;;;;37.65;22.67;100923.06;4915815;28;111843;-73
2021/06/05 09:44:23;;;;;;;6.50;4.83;;;;;;;36.94;23.68;100914.44;4915051;28;98475;-73
2021/06/05 09:47:04;;;;;;;5.43;4.32;;;;;;;34.62;25.94;100906.38;4898905;28;103207;-74
2021/06/05 09:49:40;;;;;;;5.28;4.78;;;;;;;35.07;25.33;100903.31;4884502;28;101642;-74
2021/06/05 09:52:34;;;;;;;5.05;4.55;;;;;;;37.04;24.08;100899.34;4908440;28;99049;-75
2021/06/05 09:55:20;;;;;;;5.05;4.55;;;;;;;37.82;22.08;100899.31;4915469;28;99095;-75
2021/06/05 09:57:49;;;;;;;5.20;4.80;;;;;;;39.02;21.89;100904.53;4888986;28;100333;-75
2021/06/05 10:00:34;;;;;;;4.93;4.40;;;;;;;38.74;22.09;100911.84;4898524;28;98295;-74
2021/06/05 10:03:29;;;;;;;5.20;4.65;;;;;;;39.62;20.67;100895.25;4906855;28;98857;-74
2021/06/05 10:05:56;;;;;;;4.80;4.40;;;;;;;39.08;21.51;100899.91;4902684;28;98744;-74
2021/06/05 10:08:41;;;;;;;5.13;4.10;;;;;;;38.04;23.08;100891.06;4899236;28;98141;-74
2021/06/05 10:11:38;;;;;;;6.18;4.10;;;;;;;37.97;22.55;100894.88;4893493;28;122941;-74
2021/06/05 10:14:13;;;;;;;4.13;3.80;;;;;;;34.76;25.04;100890.59;4900976;28;104379;-74
2021/06/05 10:16:42;;;;;;;3.97;3.40;;;;;;;37.50;22.61;100886.16;4895047;28;100471;-75
2021/06/05 10:19:40;;;;;;;4.53;3.50;;;;;;;38.96;20.56;100886.63;4898556;28;111543;-74
2021/06/05 10:22:06;;;;;;;4.18;3.78;;;;;;;36.97;22.93;100886.28;4886314;28;98015;-73
2021/06/05 10:24:39;;;;;;;6.70;4.50;;;;;;;38.96;20.29;100890.22;4917945;28;98329;-74
2021/06/05 10:27:13;;;;;;;5.47;4.60;;;;;;;39.36;19.41;100878.44;4897320;28;98935;-74
2021/06/05 10:29:47;;;;;;;6.15;4.18;;;;;;;38.92;19.15;100883.16;4883148;28;119105;-74
2021/06/05 10:32:20;;;;;;;5.75;2.95;;;;;;;37.02;21.14;100868.91;4888146;28;105909;-74
2021/06/05 10:35:04;;;;;;;5.63;4.30;;;;;;;39.22;18.61;100870.44;4899241;28;99762;-74
2021/06/05 10:37:32;;;;;;;4.05;3.65;;;;;;;39.74;18.77;100878.28;4898180;28;97825;-74
2021/06/05 10:39:58;;;;;;;4.20;3.17;;;;;;;38.34;20.04;100870.09;4881752;28;98338;-75
2021/06/05 10:42:51;;;;;;;4.38;3.97;;;;;;;38.88;20.65;100859.94;4884814;28;98025;-73
2021/06/05 10:45:38;;;;;;;4.20;3.80;;;;;;;39.35;20.57;100856.34;4898579;28;114299;-74
2021/06/05 10:48:09;;;;;;;4.15;3.60;;;;;;;39.15;20.25;100863.03;4897181;28;98209;-73
2021/06/05 10:50:44;;;;;;;;;;;;;;;40.67;17.71;100856.97;4892058;28;97840;-74
2021/06/05 10:53:59;;;;;;;3.13;2.83;;;;;;;39.72;18.18;100855.38;4885569;28;98338;-72
2021/06/05 10:56:58;;;;;;;3.33;3.03;;;;;;;39.20;19.44;100848.34;4888880;28;98849;-72
2021/06/05 10:59:46;;;;;;;4.38;3.50;;;;;;;38.22;21.37;100851.94;4904491;28;98786;-72
2021/06/05 11:02:39;;;;;;;3.42;3.10;;;;;;;38.72;19.52;100847.56;4883386;28;98119;-74
2021/06/05 11:05:17;;;;;;;4.13;2.78;;;;;;;37.42;21.05;100849.03;4900373;28;98455;-72
2021/06/05 11:07:43;;;;;;;3.03;2.72;;;;;;;37.15;21.20;100840.88;4917856;28;98872;-72
2021/06/05 11:10:10;;;;;;;2.90;2.58;;;;;;;37.16;21.79;100838.88;4897790;28;99451;-74
2021/06/05 11:12:36;;;;;;;3.88;2.92;;;;;;;37.52;21.30;100842.31;4899843;28;98384;-73
2021/06/05 11:15:03;;;;;;;3.95;3.35;;;;;;;36.16;22.34;100827.19;4899055;28;97821;-72
2021/06/05 11:17:40;;;;;;;3.80;3.50;;;;;;;36.51;23.32;100832.03;4889659;28;98451;-74
2021/06/05 11:20:06;;;;;;;4.03;3.70;;;;;;;36.07;23.50;100828.56;4885955;28;98545;-74
2021/06/05 11:22:51;;;;;;;4.30;3.90;;;;;;;35.80;24.00;100834.34;4916789;28;98191;-74
2021/06/05 11:25:16;;;;;;;4.10;3.70;;;;;;;35.85;24.01;100831.03;4907954;28;98022;-74
2021/06/05 11:27:44;;;;;;;3.88;3.40;;;;;;;36.57;23.67;100826.69;4912460;28;98582;-74
2021/06/05 11:30:22;;;;;;;3.63;3.30;;;;;;;35.13;24.69;100820.38;4899633;28;98545;-74